createdAt,value
2018-10-11T00:01:42.524Z,13.20
2018-10-11T00:06:46.107Z,13.20
2018-10-11T00:11:49.401Z,13.20
2018-10-11T00:16:52.902Z,13.20
2018-10-11T00:21:56.380Z,13.20
2018-10-11T00:26:59.850Z,13.20
2018-10-11T00:32:03.159Z,13.10
2018-10-11T00:37:06.906Z,13.10
2018-10-11T00:42:10.253Z,13.10
2018-10-11T00:47:13.672Z,13.10
2018-10-11T00:52:16.958Z,13.10
2018-10-11T00:57:20.341Z,13.00
2018-10-11T01:02:30.237Z,13.00
2018-10-11T01:07:33.375Z,12.90
2018-10-11T01:12:36.481Z,12.90
2018-10-11T01:17:39.648Z,12.90
2018-10-11T01:22:42.765Z,12.80
2018-10-11T01:27:45.867Z,12.80
2018-10-11T01:32:48.977Z,12.70
2018-10-11T01:37:52.081Z,12.70
2018-10-11T01:43:01.345Z,12.60
2018-10-11T01:48:04.444Z,12.60
2018-10-11T01:53:07.544Z,12.50
2018-10-11T01:58:10.661Z,12.40
2018-10-11T02:03:13.760Z,12.30
2018-10-11T02:08:16.872Z,12.30
2018-10-11T02:13:19.980Z,12.30
2018-10-11T02:18:23.105Z,12.20
2018-10-11T02:23:26.196Z,12.10
2018-10-11T02:28:29.307Z,12.10
2018-10-11T02:33:32.420Z,12.10
2018-10-11T02:38:35.520Z,12.00
2018-10-11T02:43:38.632Z,12.00
2018-10-11T02:48:41.736Z,11.90
2018-10-11T02:53:44.848Z,11.90
2018-10-11T02:58:59.223Z,11.80
2018-10-11T03:04:04.370Z,11.80
2018-10-11T03:09:08.059Z,11.80
2018-10-11T03:14:11.177Z,11.70
2018-10-11T03:19:14.283Z,11.70
2018-10-11T03:24:17.445Z,11.60
2018-10-11T03:29:20.577Z,11.60
2018-10-11T03:34:23.896Z,11.60
2018-10-11T03:39:27.834Z,11.50
2018-10-11T03:44:30.944Z,11.50
2018-10-11T03:49:34.052Z,11.50
2018-10-11T03:54:37.193Z,11.40
2018-10-11T03:59:40.316Z,11.40
2018-10-11T04:04:43.436Z,11.30
2018-10-11T04:09:46.554Z,11.30
2018-10-11T04:14:49.694Z,11.20
2018-10-11T04:19:53.101Z,11.20
2018-10-11T04:24:56.489Z,11.10
2018-10-11T04:29:59.614Z,11.10
2018-10-11T04:35:02.717Z,11.00
2018-10-11T04:40:05.839Z,11.00
2018-10-11T04:45:08.946Z,10.90
2018-10-11T04:50:12.060Z,10.80
2018-10-11T04:55:15.189Z,10.80
2018-10-11T05:00:18.317Z,10.80
2018-10-11T05:05:21.449Z,10.70
2018-10-11T05:10:24.552Z,10.60
2018-10-11T05:15:28.386Z,10.60
2018-10-11T05:20:31.493Z,10.50
2018-10-11T05:25:34.671Z,10.50
2018-10-11T05:30:40.285Z,10.50
2018-10-11T05:35:43.596Z,10.40
2018-10-11T05:40:46.710Z,10.40
2018-10-11T05:45:51.636Z,10.40
2018-10-11T05:50:55.020Z,10.30
2018-10-11T05:55:58.471Z,10.30
2018-10-11T06:01:01.597Z,10.20
2018-10-11T06:06:05.832Z,10.20
2018-10-11T06:11:08.945Z,10.20
2018-10-11T06:16:12.380Z,10.20
2018-10-11T06:21:15.533Z,10.20
2018-10-11T06:26:18.657Z,10.30
2018-10-11T06:31:21.785Z,10.30
2018-10-11T06:36:24.993Z,10.40
2018-10-11T06:41:28.322Z,10.50
2018-10-11T06:46:31.448Z,10.50
2018-10-11T06:51:34.567Z,10.60
2018-10-11T06:56:37.668Z,10.80
2018-10-11T07:01:40.804Z,10.90
2018-10-11T07:06:43.915Z,11.10
2018-10-11T07:11:47.017Z,11.30
2018-10-11T07:16:50.124Z,11.40
2018-10-11T07:21:53.312Z,11.70
2018-10-11T07:26:56.407Z,11.90
2018-10-11T07:31:59.524Z,12.10
2018-10-11T07:37:02.622Z,12.30
2018-10-11T07:42:05.752Z,12.50
2018-10-11T07:47:08.955Z,12.70
2018-10-11T07:52:12.012Z,13.00
2018-10-11T07:57:15.124Z,13.30
2018-10-11T08:02:18.232Z,13.60
2018-10-11T08:07:21.395Z,14.00
2018-10-11T08:12:24.461Z,14.40
2018-10-11T08:17:27.965Z,14.80
2018-10-11T08:22:30.693Z,15.20
2018-10-11T08:27:33.801Z,15.70
2018-10-11T08:32:37.074Z,16.10
2018-10-11T08:37:40.303Z,16.40
2018-10-11T08:42:43.310Z,16.70
2018-10-11T08:47:46.433Z,17.00
2018-10-11T08:52:49.545Z,17.40
2018-10-11T08:57:52.665Z,17.70
2018-10-11T09:02:55.776Z,18.10
2018-10-11T09:07:58.897Z,18.30
2018-10-11T09:13:02.002Z,18.60
2018-10-11T09:18:05.817Z,18.80
2018-10-11T09:23:08.993Z,19.10
2018-10-11T09:28:12.045Z,19.30
2018-10-11T09:33:15.158Z,19.50
2018-10-11T09:38:18.268Z,19.80
2018-10-11T09:43:21.396Z,20.00
2018-10-11T09:48:24.508Z,20.20
2018-10-11T09:53:27.627Z,20.50
2018-10-11T09:58:30.748Z,20.70
2018-10-11T10:03:33.864Z,21.00
2018-10-11T10:08:36.965Z,21.20
2018-10-11T10:13:40.069Z,21.40
2018-10-11T10:18:43.180Z,21.70
2018-10-11T10:23:46.293Z,21.90
2018-10-11T10:28:49.398Z,22.10
2018-10-11T10:33:52.516Z,22.30
2018-10-11T10:38:55.604Z,22.50
2018-10-11T10:43:58.720Z,22.70
2018-10-11T10:49:01.829Z,23.00
2018-10-11T10:54:10.764Z,23.20
2018-10-11T10:59:13.820Z,23.50
2018-10-11T11:04:16.939Z,23.70
2018-10-11T11:09:20.039Z,23.90
2018-10-11T11:14:23.144Z,24.10
2018-10-11T11:19:26.248Z,24.30
2018-10-11T11:24:29.351Z,24.50
2018-10-11T11:29:32.468Z,24.70
2018-10-11T11:34:35.564Z,24.90
2018-10-11T11:39:38.673Z,25.00
2018-10-11T11:44:41.781Z,25.20
2018-10-11T11:49:44.900Z,25.40
2018-10-11T11:54:48.008Z,25.60
2018-10-11T11:59:51.148Z,25.70
2018-10-11T12:04:54.299Z,25.80
2018-10-11T12:09:57.364Z,26.00
2018-10-11T12:15:00.471Z,26.10
2018-10-11T12:20:03.597Z,26.20
2018-10-11T12:25:06.704Z,26.20
2018-10-11T12:30:09.824Z,26.30
2018-10-11T12:35:12.990Z,26.30
2018-10-11T12:40:16.324Z,26.40
2018-10-11T12:45:19.539Z,26.50
2018-10-11T12:50:22.629Z,26.60
2018-10-11T12:55:25.740Z,26.60
2018-10-11T13:00:28.860Z,26.70
2018-10-11T13:05:31.983Z,26.70
2018-10-11T13:10:35.116Z,26.80
2018-10-11T13:15:38.278Z,26.90
2018-10-11T13:20:41.422Z,26.90
2018-10-11T13:25:44.451Z,27.00
2018-10-11T13:30:47.590Z,27.00
2018-10-11T13:35:50.679Z,27.00
2018-10-11T13:40:56.894Z,27.00
2018-10-11T13:45:59.022Z,27.00
2018-10-11T13:51:00.001Z,27.00
2018-10-11T13:56:03.105Z,27.00
2018-10-11T14:01:06.276Z,27.00
2018-10-11T14:06:09.390Z,27.00
2018-10-11T14:11:12.496Z,27.00
2018-10-11T14:16:15.641Z,26.90
2018-10-11T14:21:18.757Z,26.80
2018-10-11T14:26:21.880Z,26.80
2018-10-11T14:31:25.389Z,26.70
2018-10-11T14:36:28.589Z,26.60
2018-10-11T14:41:31.624Z,26.50
2018-10-11T14:46:34.731Z,26.40
2018-10-11T14:51:41.894Z,26.30
2018-10-11T14:56:40.949Z,26.20
2018-10-11T15:01:44.053Z,26.20
2018-10-11T15:06:47.172Z,26.10
2018-10-11T15:11:50.329Z,26.00
2018-10-11T15:16:53.477Z,25.90
2018-10-11T15:21:56.592Z,25.90
2018-10-11T15:26:59.706Z,25.70
2018-10-11T15:32:02.812Z,25.60
2018-10-11T15:37:05.963Z,25.40
2018-10-11T15:42:09.142Z,25.40
2018-10-11T15:47:12.257Z,25.20
2018-10-11T15:52:15.436Z,25.10
2018-10-11T15:57:18.472Z,24.90
2018-10-11T16:02:21.572Z,24.80
2018-10-11T16:07:24.681Z,24.60
2018-10-11T16:12:27.800Z,24.40
2018-10-11T16:17:30.926Z,24.10
2018-10-11T16:22:34.032Z,23.80
2018-10-11T16:27:37.145Z,23.60
2018-10-11T16:32:40.244Z,23.40
2018-10-11T16:37:43.377Z,23.10
2018-10-11T16:42:46.481Z,22.80
2018-10-11T16:47:49.606Z,22.60
2018-10-11T16:52:52.737Z,22.30
2018-10-11T16:57:55.850Z,22.10
2018-10-11T17:02:58.960Z,21.80
2018-10-11T17:08:02.132Z,21.60
2018-10-11T17:13:06.014Z,21.30
2018-10-11T17:18:09.152Z,21.10
2018-10-11T17:23:12.266Z,20.90
2018-10-11T17:28:15.389Z,20.70
2018-10-11T17:33:18.565Z,20.50
2018-10-11T17:38:21.677Z,20.30
2018-10-11T17:43:24.794Z,20.10
2018-10-11T17:48:27.933Z,19.80
2018-10-11T17:53:31.039Z,19.60
2018-10-11T17:58:34.157Z,19.40
2018-10-11T18:03:37.274Z,19.30
2018-10-11T18:08:40.393Z,19.10
2018-10-11T18:13:43.554Z,18.90
2018-10-11T18:18:46.663Z,18.70
2018-10-11T18:23:49.785Z,18.50
2018-10-11T18:28:52.966Z,18.40
2018-10-11T18:33:56.044Z,18.20
2018-10-11T18:38:59.169Z,18.00
2018-10-11T18:44:02.281Z,17.90
2018-10-11T18:49:06.224Z,17.70
2018-10-11T18:54:09.349Z,17.60
2018-10-11T18:59:12.482Z,17.40
2018-10-11T19:04:15.611Z,17.30
2018-10-11T19:09:18.708Z,17.20
2018-10-11T19:14:21.816Z,17.00
2018-10-11T19:19:24.921Z,16.90
2018-10-11T19:24:28.042Z,16.80
2018-10-11T19:29:31.152Z,16.70
2018-10-11T19:34:34.252Z,16.50
2018-10-11T19:39:37.368Z,16.40
2018-10-11T19:44:40.460Z,16.20
2018-10-11T19:49:43.580Z,16.10
2018-10-11T19:54:46.677Z,16.00
2018-10-11T19:59:49.784Z,15.90
2018-10-11T20:04:52.884Z,15.80
2018-10-11T20:09:55.993Z,15.70
2018-10-11T20:14:59.104Z,15.60
2018-10-11T20:20:02.223Z,15.50
2018-10-11T20:25:05.809Z,15.40
2018-10-11T20:30:08.922Z,15.20
2018-10-11T20:35:12.034Z,15.10
2018-10-11T20:40:15.140Z,15.10
2018-10-11T20:45:18.244Z,14.90
2018-10-11T20:50:21.397Z,14.90
2018-10-11T20:55:24.467Z,14.70
2018-10-11T21:00:27.568Z,14.60
2018-10-11T21:05:30.892Z,14.60
2018-10-11T21:10:34.011Z,14.40
2018-10-11T21:15:37.116Z,14.40
2018-10-11T21:20:40.225Z,14.30
2018-10-11T21:25:43.330Z,14.20
2018-10-11T21:30:46.446Z,14.10
2018-10-11T21:35:49.549Z,14.00
2018-10-11T21:40:52.661Z,14.00
2018-10-11T21:45:55.773Z,13.90
2018-10-11T21:50:58.880Z,13.80
2018-10-11T21:56:02.000Z,13.70
2018-10-11T22:01:11.090Z,13.70
2018-10-11T22:06:14.188Z,13.60
2018-10-11T22:11:17.289Z,13.60
2018-10-11T22:16:20.388Z,13.60
2018-10-11T22:21:23.507Z,13.50
2018-10-11T22:26:26.617Z,13.50
2018-10-11T22:31:29.748Z,13.50
2018-10-11T22:36:32.879Z,13.50
2018-10-11T22:41:36.112Z,13.50
2018-10-11T22:46:39.526Z,13.50
2018-10-11T22:51:42.633Z,13.50
2018-10-11T22:56:45.738Z,13.50
2018-10-11T23:01:48.836Z,13.50
2018-10-11T23:06:51.948Z,13.50
2018-10-11T23:11:55.059Z,13.50
2018-10-11T23:16:58.306Z,13.50
2018-10-11T23:22:01.413Z,13.50
2018-10-11T23:27:04.536Z,13.50
2018-10-11T23:32:07.648Z,13.50
2018-10-11T23:37:10.753Z,13.50
2018-10-11T23:42:13.864Z,13.50
2018-10-11T23:47:16.964Z,13.50
2018-10-11T23:52:20.073Z,13.50
2018-10-11T23:57:23.192Z,13.50
